sensor_id;sensor_type;location;lat;lon;timestamp;P1;durP1;ratioP1;P2;durP2;ratioP2
8050;SDS011;4068;42.158;24.732;2023-03-14T00:01:53;10.33;;;5.60;;
8050;SDS011;4068;42.158;24.732;2023-03-14T00:04:19;8.03;;;5.33;;
8050;SDS011;4068;42.158;24.732;2023-03-14T00:06:44;11.87;;;5.60;;
8050;SDS011;4068;42.158;24.732;2023-03-14T00:09:11;6.97;;;5.13;;
8050;SDS011;4068;42.158;24.732;2023-03-14T00:11:37;10.13;;;5.93;;
8050;SDS011;4068;42.158;24.732;2023-03-14T00:14:03;10.27;;;6.00;;
8050;SDS011;4068;42.158;24.732;2023-03-14T00:16:28;11.70;;;5.90;;
8050;SDS011;4068;42.158;24.732;2023-03-14T00:18:53;6.77;;;5.30;;
8050;SDS011;4068;42.158;24.732;2023-03-14T00:21:19;9.33;;;5.60;;
8050;SDS011;4068;42.158;24.732;2023-03-14T00:23:44;10.70;;;5.73;;
8050;SDS011;4068;42.158;24.732;2023-03-14T00:26:14;8.40;;;5.50;;
8050;SDS011;4068;42.158;24.732;2023-03-14T00:28:41;9.87;;;5.77;;
8050;SDS011;4068;42.158;24.732;2023-03-14T00:31:08;8.00;;;5.50;;
8050;SDS011;4068;42.158;24.732;2023-03-14T00:33:34;7.90;;;5.77;;
8050;SDS011;4068;42.158;24.732;2023-03-14T00:36:04;7.40;;;5.60;;
8050;SDS011;4068;42.158;24.732;2023-03-14T00:38:33;22.97;;;6.87;;
8050;SDS011;4068;42.158;24.732;2023-03-14T00:41:02;11.27;;;5.83;;
8050;SDS011;4068;42.158;24.732;2023-03-14T00:43:29;8.67;;;5.70;;
8050;SDS011;4068;42.158;24.732;2023-03-14T00:45:54;8.63;;;6.30;;
8050;SDS011;4068;42.158;24.732;2023-03-14T00:48:20;13.10;;;7.03;;
8050;SDS011;4068;42.158;24.732;2023-03-14T00:50:46;12.17;;;6.77;;
8050;SDS011;4068;42.158;24.732;2023-03-14T00:53:11;9.03;;;6.23;;
8050;SDS011;4068;42.158;24.732;2023-03-14T00:55:40;9.63;;;6.63;;
8050;SDS011;4068;42.158;24.732;2023-03-14T00:58:07;10.53;;;6.73;;
8050;SDS011;4068;42.158;24.732;2023-03-14T01:00:33;13.77;;;8.00;;
8050;SDS011;4068;42.158;24.732;2023-03-14T01:02:58;13.97;;;7.60;;
8050;SDS011;4068;42.158;24.732;2023-03-14T01:05:24;22.83;;;8.77;;
8050;SDS011;4068;42.158;24.732;2023-03-14T01:07:49;13.73;;;7.10;;
8050;SDS011;4068;42.158;24.732;2023-03-14T01:10:15;13.50;;;8.07;;
8050;SDS011;4068;42.158;24.732;2023-03-14T01:12:41;13.17;;;8.00;;
8050;SDS011;4068;42.158;24.732;2023-03-14T01:15:07;15.30;;;8.73;;
8050;SDS011;4068;42.158;24.732;2023-03-14T01:17:32;15.27;;;8.57;;
8050;SDS011;4068;42.158;24.732;2023-03-14T01:19:58;20.57;;;9.03;;
8050;SDS011;4068;42.158;24.732;2023-03-14T01:22:24;16.40;;;8.30;;
8050;SDS011;4068;42.158;24.732;2023-03-14T01:24:50;20.23;;;8.70;;
8050;SDS011;4068;42.158;24.732;2023-03-14T01:27:15;15.83;;;9.53;;
8050;SDS011;4068;42.158;24.732;2023-03-14T01:29:41;15.93;;;9.17;;
8050;SDS011;4068;42.158;24.732;2023-03-14T01:32:06;18.97;;;9.17;;
8050;SDS011;4068;42.158;24.732;2023-03-14T01:34:32;17.67;;;9.13;;
8050;SDS011;4068;42.158;24.732;2023-03-14T01:36:57;14.33;;;8.70;;
8050;SDS011;4068;42.158;24.732;2023-03-14T01:39:22;16.97;;;8.63;;
8050;SDS011;4068;42.158;24.732;2023-03-14T01:41:48;14.47;;;7.73;;
8050;SDS011;4068;42.158;24.732;2023-03-14T01:44:13;14.77;;;8.67;;
8050;SDS011;4068;42.158;24.732;2023-03-14T01:54:07;15.07;;;7.40;;
8050;SDS011;4068;42.158;24.732;2023-03-14T01:56:36;17.40;;;8.83;;
8050;SDS011;4068;42.158;24.732;2023-03-14T01:59:06;17.57;;;8.77;;
8050;SDS011;4068;42.158;24.732;2023-03-14T02:01:32;14.90;;;7.97;;
8050;SDS011;4068;42.158;24.732;2023-03-14T02:03:59;15.80;;;8.17;;
8050;SDS011;4068;42.158;24.732;2023-03-14T02:06:29;13.60;;;8.37;;
8050;SDS011;4068;42.158;24.732;2023-03-14T02:09:00;16.80;;;8.17;;
8050;SDS011;4068;42.158;24.732;2023-03-14T02:11:28;15.40;;;9.33;;
8050;SDS011;4068;42.158;24.732;2023-03-14T02:13:55;18.73;;;9.43;;
8050;SDS011;4068;42.158;24.732;2023-03-14T02:16:23;18.30;;;9.47;;
8050;SDS011;4068;42.158;24.732;2023-03-14T02:18:49;14.67;;;8.17;;
8050;SDS011;4068;42.158;24.732;2023-03-14T02:21:39;14.10;;;8.40;;
8050;SDS011;4068;42.158;24.732;2023-03-14T02:24:22;15.50;;;9.23;;
8050;SDS011;4068;42.158;24.732;2023-03-14T02:27:09;16.10;;;8.67;;
8050;SDS011;4068;42.158;24.732;2023-03-14T02:29:39;16.67;;;9.33;;
8050;SDS011;4068;42.158;24.732;2023-03-14T02:32:10;19.27;;;9.23;;
8050;SDS011;4068;42.158;24.732;2023-03-14T02:34:36;15.10;;;8.50;;
8050;SDS011;4068;42.158;24.732;2023-03-14T02:37:02;21.07;;;10.43;;
8050;SDS011;4068;42.158;24.732;2023-03-14T02:39:30;18.47;;;8.87;;
8050;SDS011;4068;42.158;24.732;2023-03-14T02:42:01;15.00;;;8.40;;
8050;SDS011;4068;42.158;24.732;2023-03-14T02:44:27;16.77;;;8.73;;
8050;SDS011;4068;42.158;24.732;2023-03-14T02:46:52;14.53;;;8.60;;
8050;SDS011;4068;42.158;24.732;2023-03-14T02:49:18;19.30;;;8.73;;
8050;SDS011;4068;42.158;24.732;2023-03-14T02:51:43;16.17;;;8.60;;
8050;SDS011;4068;42.158;24.732;2023-03-14T02:54:11;19.20;;;8.93;;
8050;SDS011;4068;42.158;24.732;2023-03-14T02:56:36;28.37;;;9.53;;
8050;SDS011;4068;42.158;24.732;2023-03-14T02:59:02;19.87;;;9.63;;
8050;SDS011;4068;42.158;24.732;2023-03-14T03:01:28;28.43;;;13.57;;
8050;SDS011;4068;42.158;24.732;2023-03-14T03:03:54;28.53;;;14.77;;
8050;SDS011;4068;42.158;24.732;2023-03-14T03:06:19;38.90;;;15.47;;
8050;SDS011;4068;42.158;24.732;2023-03-14T03:08:45;33.77;;;15.27;;
8050;SDS011;4068;42.158;24.732;2023-03-14T03:11:10;32.67;;;14.63;;
8050;SDS011;4068;42.158;24.732;2023-03-14T03:13:36;30.97;;;14.43;;
8050;SDS011;4068;42.158;24.732;2023-03-14T03:16:02;33.33;;;14.13;;
8050;SDS011;4068;42.158;24.732;2023-03-14T03:18:27;34.47;;;14.87;;
8050;SDS011;4068;42.158;24.732;2023-03-14T03:20:53;29.20;;;14.63;;
8050;SDS011;4068;42.158;24.732;2023-03-14T03:23:18;25.90;;;13.67;;
8050;SDS011;4068;42.158;24.732;2023-03-14T03:25:50;32.73;;;16.07;;
8050;SDS011;4068;42.158;24.732;2023-03-14T03:28:16;25.73;;;12.83;;
8050;SDS011;4068;42.158;24.732;2023-03-14T03:30:42;24.87;;;11.20;;
8050;SDS011;4068;42.158;24.732;2023-03-14T03:33:08;29.33;;;11.07;;
8050;SDS011;4068;42.158;24.732;2023-03-14T03:35:34;32.20;;;11.87;;
8050;SDS011;4068;42.158;24.732;2023-03-14T03:37:59;28.13;;;12.00;;
8050;SDS011;4068;42.158;24.732;2023-03-14T03:40:25;34.47;;;11.30;;
8050;SDS011;4068;42.158;24.732;2023-03-14T03:42:50;26.27;;;11.57;;
8050;SDS011;4068;42.158;24.732;2023-03-14T03:45:16;21.80;;;10.30;;
8050;SDS011;4068;42.158;24.732;2023-03-14T03:47:41;28.50;;;11.00;;
8050;SDS011;4068;42.158;24.732;2023-03-14T03:50:07;21.07;;;11.10;;
8050;SDS011;4068;42.158;24.732;2023-03-14T03:52:33;23.37;;;11.80;;
8050;SDS011;4068;42.158;24.732;2023-03-14T03:54:58;22.10;;;10.83;;
8050;SDS011;4068;42.158;24.732;2023-03-14T03:57:23;25.07;;;11.50;;
8050;SDS011;4068;42.158;24.732;2023-03-14T03:59:49;27.60;;;11.90;;
8050;SDS011;4068;42.158;24.732;2023-03-14T04:02:14;23.27;;;11.53;;
8050;SDS011;4068;42.158;24.732;2023-03-14T04:04:40;21.07;;;10.87;;
8050;SDS011;4068;42.158;24.732;2023-03-14T04:07:05;26.50;;;11.93;;
8050;SDS011;4068;42.158;24.732;2023-03-14T04:09:31;25.97;;;12.33;;
8050;SDS011;4068;42.158;24.732;2023-03-14T04:11:56;24.43;;;11.90;;
8050;SDS011;4068;42.158;24.732;2023-03-14T04:14:22;22.60;;;11.53;;
8050;SDS011;4068;42.158;24.732;2023-03-14T04:16:48;29.23;;;12.33;;
8050;SDS011;4068;42.158;24.732;2023-03-14T04:19:14;24.53;;;12.40;;
8050;SDS011;4068;42.158;24.732;2023-03-14T04:21:39;34.33;;;13.77;;
8050;SDS011;4068;42.158;24.732;2023-03-14T04:24:09;23.10;;;11.77;;
8050;SDS011;4068;42.158;24.732;2023-03-14T04:26:35;25.23;;;11.13;;
8050;SDS011;4068;42.158;24.732;2023-03-14T04:29:00;34.77;;;12.33;;
8050;SDS011;4068;42.158;24.732;2023-03-14T04:31:26;29.47;;;12.40;;
8050;SDS011;4068;42.158;24.732;2023-03-14T04:33:51;29.93;;;12.50;;
8050;SDS011;4068;42.158;24.732;2023-03-14T04:36:16;26.00;;;11.93;;
8050;SDS011;4068;42.158;24.732;2023-03-14T04:38:42;40.50;;;12.83;;
8050;SDS011;4068;42.158;24.732;2023-03-14T04:41:07;29.63;;;13.53;;
8050;SDS011;4068;42.158;24.732;2023-03-14T04:43:33;27.73;;;13.33;;
8050;SDS011;4068;42.158;24.732;2023-03-14T04:45:59;22.80;;;11.80;;
8050;SDS011;4068;42.158;24.732;2023-03-14T04:48:25;29.83;;;13.47;;
8050;SDS011;4068;42.158;24.732;2023-03-14T04:50:51;29.97;;;13.20;;
8050;SDS011;4068;42.158;24.732;2023-03-14T04:53:17;34.80;;;13.50;;
8050;SDS011;4068;42.158;24.732;2023-03-14T04:55:47;33.77;;;14.87;;
8050;SDS011;4068;42.158;24.732;2023-03-14T04:58:20;32.47;;;13.83;;
8050;SDS011;4068;42.158;24.732;2023-03-14T05:00:46;44.17;;;15.97;;
8050;SDS011;4068;42.158;24.732;2023-03-14T05:03:11;56.13;;;23.90;;
8050;SDS011;4068;42.158;24.732;2023-03-14T05:05:39;71.30;;;27.37;;
8050;SDS011;4068;42.158;24.732;2023-03-14T05:08:04;44.50;;;19.50;;
8050;SDS011;4068;42.158;24.732;2023-03-14T05:10:30;32.43;;;15.47;;
8050;SDS011;4068;42.158;24.732;2023-03-14T05:12:55;36.67;;;14.60;;
8050;SDS011;4068;42.158;24.732;2023-03-14T05:15:21;22.33;;;11.33;;
8050;SDS011;4068;42.158;24.732;2023-03-14T05:17:46;26.23;;;12.23;;
8050;SDS011;4068;42.158;24.732;2023-03-14T05:20:11;42.93;;;13.47;;
8050;SDS011;4068;42.158;24.732;2023-03-14T05:22:40;22.33;;;10.83;;
8050;SDS011;4068;42.158;24.732;2023-03-14T05:25:06;25.23;;;12.63;;
8050;SDS011;4068;42.158;24.732;2023-03-14T05:27:33;23.50;;;12.10;;
8050;SDS011;4068;42.158;24.732;2023-03-14T05:29:59;22.57;;;11.07;;
8050;SDS011;4068;42.158;24.732;2023-03-14T05:32:24;17.43;;;9.47;;
8050;SDS011;4068;42.158;24.732;2023-03-14T05:34:50;26.70;;;11.17;;
8050;SDS011;4068;42.158;24.732;2023-03-14T05:37:15;28.90;;;11.20;;
8050;SDS011;4068;42.158;24.732;2023-03-14T05:39:40;20.17;;;10.13;;
8050;SDS011;4068;42.158;24.732;2023-03-14T05:42:06;23.00;;;11.00;;
8050;SDS011;4068;42.158;24.732;2023-03-14T05:44:31;24.47;;;11.40;;
8050;SDS011;4068;42.158;24.732;2023-03-14T05:46:57;21.53;;;11.20;;
8050;SDS011;4068;42.158;24.732;2023-03-14T05:49:22;20.23;;;11.60;;
8050;SDS011;4068;42.158;24.732;2023-03-14T05:51:48;22.13;;;11.80;;
8050;SDS011;4068;42.158;24.732;2023-03-14T05:54:13;31.37;;;12.47;;
8050;SDS011;4068;42.158;24.732;2023-03-14T05:56:38;22.30;;;10.97;;
8050;SDS011;4068;42.158;24.732;2023-03-14T05:59:04;34.53;;;14.07;;
8050;SDS011;4068;42.158;24.732;2023-03-14T06:01:29;30.03;;;15.67;;
8050;SDS011;4068;42.158;24.732;2023-03-14T06:03:55;35.23;;;18.17;;
8050;SDS011;4068;42.158;24.732;2023-03-14T06:06:21;49.03;;;20.33;;
8050;SDS011;4068;42.158;24.732;2023-03-14T06:08:46;44.07;;;20.13;;
8050;SDS011;4068;42.158;24.732;2023-03-14T06:11:12;41.27;;;19.37;;
8050;SDS011;4068;42.158;24.732;2023-03-14T06:13:37;37.17;;;17.50;;
8050;SDS011;4068;42.158;24.732;2023-03-14T06:16:02;25.33;;;13.87;;
8050;SDS011;4068;42.158;24.732;2023-03-14T06:18:28;24.93;;;13.00;;
8050;SDS011;4068;42.158;24.732;2023-03-14T06:20:54;25.90;;;13.40;;
8050;SDS011;4068;42.158;24.732;2023-03-14T06:23:20;29.50;;;14.33;;
8050;SDS011;4068;42.158;24.732;2023-03-14T06:25:46;28.70;;;13.27;;
8050;SDS011;4068;42.158;24.732;2023-03-14T06:28:12;23.07;;;13.23;;
8050;SDS011;4068;42.158;24.732;2023-03-14T06:30:37;27.70;;;13.03;;
8050;SDS011;4068;42.158;24.732;2023-03-14T06:33:03;19.73;;;11.23;;
8050;SDS011;4068;42.158;24.732;2023-03-14T06:35:28;20.17;;;11.33;;
8050;SDS011;4068;42.158;24.732;2023-03-14T06:37:54;28.57;;;13.00;;
8050;SDS011;4068;42.158;24.732;2023-03-14T06:40:19;21.67;;;11.80;;
8050;SDS011;4068;42.158;24.732;2023-03-14T06:42:45;30.17;;;11.50;;
8050;SDS011;4068;42.158;24.732;2023-03-14T06:45:10;19.93;;;11.80;;
8050;SDS011;4068;42.158;24.732;2023-03-14T06:47:36;20.03;;;11.53;;
8050;SDS011;4068;42.158;24.732;2023-03-14T06:50:04;21.07;;;10.73;;
8050;SDS011;4068;42.158;24.732;2023-03-14T06:52:31;23.07;;;12.23;;
8050;SDS011;4068;42.158;24.732;2023-03-14T06:54:56;29.73;;;11.90;;
8050;SDS011;4068;42.158;24.732;2023-03-14T06:57:22;25.17;;;11.97;;
8050;SDS011;4068;42.158;24.732;2023-03-14T06:59:47;23.00;;;11.83;;
8050;SDS011;4068;42.158;24.732;2023-03-14T07:02:13;24.77;;;13.30;;
8050;SDS011;4068;42.158;24.732;2023-03-14T07:04:38;25.50;;;12.30;;
8050;SDS011;4068;42.158;24.732;2023-03-14T07:07:04;30.63;;;13.30;;
8050;SDS011;4068;42.158;24.732;2023-03-14T07:09:30;29.77;;;13.13;;
8050;SDS011;4068;42.158;24.732;2023-03-14T07:11:56;43.37;;;12.97;;
8050;SDS011;4068;42.158;24.732;2023-03-14T07:14:21;28.90;;;13.20;;
8050;SDS011;4068;42.158;24.732;2023-03-14T07:16:47;26.23;;;11.67;;
8050;SDS011;4068;42.158;24.732;2023-03-14T07:19:12;22.20;;;11.47;;
8050;SDS011;4068;42.158;24.732;2023-03-14T07:21:37;22.10;;;11.70;;
8050;SDS011;4068;42.158;24.732;2023-03-14T07:24:03;26.57;;;12.70;;
8050;SDS011;4068;42.158;24.732;2023-03-14T07:26:28;25.67;;;12.57;;
8050;SDS011;4068;42.158;24.732;2023-03-14T07:28:54;26.10;;;12.57;;
8050;SDS011;4068;42.158;24.732;2023-03-14T07:31:19;26.77;;;11.33;;
8050;SDS011;4068;42.158;24.732;2023-03-14T07:33:45;22.77;;;11.10;;
8050;SDS011;4068;42.158;24.732;2023-03-14T07:36:10;27.67;;;10.87;;
8050;SDS011;4068;42.158;24.732;2023-03-14T07:38:36;29.57;;;10.47;;
8050;SDS011;4068;42.158;24.732;2023-03-14T07:41:02;29.47;;;11.60;;
8050;SDS011;4068;42.158;24.732;2023-03-14T07:43:30;19.43;;;10.70;;
8050;SDS011;4068;42.158;24.732;2023-03-14T07:45:55;18.70;;;9.50;;
8050;SDS011;4068;42.158;24.732;2023-03-14T07:48:21;18.00;;;9.67;;
8050;SDS011;4068;42.158;24.732;2023-03-14T07:50:50;17.97;;;9.73;;
8050;SDS011;4068;42.158;24.732;2023-03-14T07:53:16;22.57;;;10.30;;
8050;SDS011;4068;42.158;24.732;2023-03-14T07:55:42;16.67;;;8.90;;
8050;SDS011;4068;42.158;24.732;2023-03-14T07:58:07;20.63;;;9.33;;
8050;SDS011;4068;42.158;24.732;2023-03-14T08:00:33;22.87;;;9.80;;
8050;SDS011;4068;42.158;24.732;2023-03-14T08:02:58;27.30;;;9.13;;
8050;SDS011;4068;42.158;24.732;2023-03-14T08:05:23;23.00;;;10.13;;
8050;SDS011;4068;42.158;24.732;2023-03-14T08:07:49;28.07;;;9.63;;
8050;SDS011;4068;42.158;24.732;2023-03-14T08:10:14;22.50;;;10.10;;
8050;SDS011;4068;42.158;24.732;2023-03-14T08:12:46;12.93;;;8.87;;
8050;SDS011;4068;42.158;24.732;2023-03-14T08:15:12;14.90;;;8.97;;
8050;SDS011;4068;42.158;24.732;2023-03-14T08:17:37;14.57;;;8.77;;
8050;SDS011;4068;42.158;24.732;2023-03-14T08:20:03;20.45;;;9.57;;
8050;SDS011;4068;42.158;24.732;2023-03-14T08:22:32;15.77;;;9.35;;
8050;SDS011;4068;42.158;24.732;2023-03-14T08:24:57;17.58;;;9.23;;
8050;SDS011;4068;42.158;24.732;2023-03-14T08:27:22;19.10;;;9.98;;
8050;SDS011;4068;42.158;24.732;2023-03-14T08:29:48;14.57;;;9.45;;
8050;SDS011;4068;42.158;24.732;2023-03-14T08:32:13;25.00;;;10.55;;
8050;SDS011;4068;42.158;24.732;2023-03-14T08:34:39;22.48;;;10.10;;
8050;SDS011;4068;42.158;24.732;2023-03-14T08:37:04;21.50;;;11.25;;
8050;SDS011;4068;42.158;24.732;2023-03-14T08:39:30;20.05;;;10.88;;
8050;SDS011;4068;42.158;24.732;2023-03-14T08:41:55;22.92;;;10.43;;
8050;SDS011;4068;42.158;24.732;2023-03-14T08:44:21;20.63;;;10.00;;
8050;SDS011;4068;42.158;24.732;2023-03-14T08:46:46;19.60;;;10.57;;
8050;SDS011;4068;42.158;24.732;2023-03-14T08:49:12;23.38;;;9.93;;
8050;SDS011;4068;42.158;24.732;2023-03-14T08:51:39;16.80;;;9.75;;
8050;SDS011;4068;42.158;24.732;2023-03-14T08:54:04;16.95;;;10.60;;
8050;SDS011;4068;42.158;24.732;2023-03-14T08:56:30;20.42;;;9.45;;
8050;SDS011;4068;42.158;24.732;2023-03-14T08:58:55;23.73;;;11.38;;
8050;SDS011;4068;42.158;24.732;2023-03-14T09:01:21;16.10;;;10.18;;
8050;SDS011;4068;42.158;24.732;2023-03-14T09:03:49;18.30;;;10.38;;
8050;SDS011;4068;42.158;24.732;2023-03-14T09:06:14;17.73;;;10.10;;
8050;SDS011;4068;42.158;24.732;2023-03-14T09:08:42;24.98;;;11.40;;
8050;SDS011;4068;42.158;24.732;2023-03-14T09:11:08;18.50;;;9.32;;
8050;SDS011;4068;42.158;24.732;2023-03-14T09:13:34;21.80;;;10.15;;
8050;SDS011;4068;42.158;24.732;2023-03-14T09:16:00;19.40;;;9.75;;
8050;SDS011;4068;42.158;24.732;2023-03-14T09:18:26;19.88;;;9.95;;
8050;SDS011;4068;42.158;24.732;2023-03-14T09:20:51;23.38;;;9.30;;
8050;SDS011;4068;42.158;24.732;2023-03-14T09:23:16;16.52;;;8.55;;
8050;SDS011;4068;42.158;24.732;2023-03-14T09:25:42;19.83;;;8.15;;
8050;SDS011;4068;42.158;24.732;2023-03-14T09:28:07;12.40;;;7.88;;
8050;SDS011;4068;42.158;24.732;2023-03-14T09:30:33;22.35;;;8.55;;
8050;SDS011;4068;42.158;24.732;2023-03-14T09:32:58;20.17;;;8.52;;
8050;SDS011;4068;42.158;24.732;2023-03-14T09:35:24;18.55;;;8.55;;
8050;SDS011;4068;42.158;24.732;2023-03-14T09:37:50;15.52;;;8.55;;
8050;SDS011;4068;42.158;24.732;2023-03-14T09:40:16;13.77;;;6.88;;
8050;SDS011;4068;42.158;24.732;2023-03-14T09:42:44;12.75;;;6.80;;
8050;SDS011;4068;42.158;24.732;2023-03-14T09:45:15;10.10;;;6.28;;
8050;SDS011;4068;42.158;24.732;2023-03-14T09:47:47;8.60;;;6.40;;
8050;SDS011;4068;42.158;24.732;2023-03-14T09:50:15;11.02;;;5.82;;
8050;SDS011;4068;42.158;24.732;2023-03-14T09:52:45;9.85;;;5.97;;
8050;SDS011;4068;42.158;24.732;2023-03-14T09:55:17;10.05;;;6.03;;
8050;SDS011;4068;42.158;24.732;2023-03-14T09:57:45;11.68;;;5.82;;
8050;SDS011;4068;42.158;24.732;2023-03-14T10:02:51;9.32;;;6.63;;
8050;SDS011;4068;42.158;24.732;2023-03-14T10:05:21;7.72;;;5.90;;
8050;SDS011;4068;42.158;24.732;2023-03-14T10:07:47;9.43;;;6.35;;
8050;SDS011;4068;42.158;24.732;2023-03-14T10:10:15;11.30;;;5.63;;
8050;SDS011;4068;42.158;24.732;2023-03-14T10:12:45;7.65;;;5.82;;
8050;SDS011;4068;42.158;24.732;2023-03-14T10:15:12;9.10;;;5.80;;
8050;SDS011;4068;42.158;24.732;2023-03-14T10:17:51;8.20;;;5.75;;
8050;SDS011;4068;42.158;24.732;2023-03-14T10:23:18;8.25;;;5.75;;
8050;SDS011;4068;42.158;24.732;2023-03-14T10:26:08;13.88;;;5.43;;
8050;SDS011;4068;42.158;24.732;2023-03-14T10:28:48;8.23;;;5.70;;
8050;SDS011;4068;42.158;24.732;2023-03-14T10:31:17;9.73;;;5.43;;
8050;SDS011;4068;42.158;24.732;2023-03-14T10:33:56;5.88;;;5.00;;
8050;SDS011;4068;42.158;24.732;2023-03-14T10:36:27;6.30;;;4.85;;
8050;SDS011;4068;42.158;24.732;2023-03-14T10:41:48;7.00;;;5.15;;
8050;SDS011;4068;42.158;24.732;2023-03-14T10:44:18;8.23;;;5.90;;
8050;SDS011;4068;42.158;24.732;2023-03-14T10:46:55;10.40;;;5.60;;
8050;SDS011;4068;42.158;24.732;2023-03-14T10:49:33;9.20;;;5.60;;
8050;SDS011;4068;42.158;24.732;2023-03-14T10:52:02;7.22;;;4.88;;
8050;SDS011;4068;42.158;24.732;2023-03-14T10:54:33;7.07;;;5.35;;
8050;SDS011;4068;42.158;24.732;2023-03-14T10:56:59;8.38;;;5.20;;
8050;SDS011;4068;42.158;24.732;2023-03-14T10:59:30;10.02;;;5.93;;
8050;SDS011;4068;42.158;24.732;2023-03-14T11:04:54;6.35;;;5.50;;
8050;SDS011;4068;42.158;24.732;2023-03-14T11:15:29;8.85;;;5.78;;
8050;SDS011;4068;42.158;24.732;2023-03-14T11:23:32;11.70;;;6.32;;
8050;SDS011;4068;42.158;24.732;2023-03-14T11:29:08;9.82;;;5.70;;
8050;SDS011;4068;42.158;24.732;2023-03-14T11:31:44;13.40;;;6.13;;
8050;SDS011;4068;42.158;24.732;2023-03-14T11:36:51;12.27;;;5.68;;
8050;SDS011;4068;42.158;24.732;2023-03-14T11:39:37;12.10;;;5.75;;
8050;SDS011;4068;42.158;24.732;2023-03-14T11:42:04;7.82;;;4.95;;
8050;SDS011;4068;42.158;24.732;2023-03-14T11:44:39;12.00;;;5.10;;
8050;SDS011;4068;42.158;24.732;2023-03-14T11:47:07;5.63;;;4.70;;
8050;SDS011;4068;42.158;24.732;2023-03-14T11:49:50;12.57;;;5.38;;
8050;SDS011;4068;42.158;24.732;2023-03-14T11:52:25;7.28;;;4.75;;
8050;SDS011;4068;42.158;24.732;2023-03-14T11:57:51;12.48;;;4.22;;
8050;SDS011;4068;42.158;24.732;2023-03-14T12:00:22;7.75;;;5.03;;
8050;SDS011;4068;42.158;24.732;2023-03-14T12:09:08;8.23;;;5.45;;
8050;SDS011;4068;42.158;24.732;2023-03-14T12:14:15;10.73;;;5.80;;
8050;SDS011;4068;42.158;24.732;2023-03-14T12:16:59;8.52;;;5.45;;
8050;SDS011;4068;42.158;24.732;2023-03-14T12:19:43;13.90;;;5.20;;
8050;SDS011;4068;42.158;24.732;2023-03-14T12:25:34;12.13;;;5.97;;
8050;SDS011;4068;42.158;24.732;2023-03-14T12:28:02;8.77;;;5.05;;
8050;SDS011;4068;42.158;24.732;2023-03-14T12:30:30;10.23;;;4.88;;
8050;SDS011;4068;42.158;24.732;2023-03-14T12:35:43;9.50;;;5.85;;
8050;SDS011;4068;42.158;24.732;2023-03-14T12:38:15;11.50;;;5.80;;
8050;SDS011;4068;42.158;24.732;2023-03-14T12:43:25;13.30;;;5.97;;
8050;SDS011;4068;42.158;24.732;2023-03-14T12:51:29;8.60;;;5.65;;
8050;SDS011;4068;42.158;24.732;2023-03-14T12:56:51;7.25;;;4.75;;
8050;SDS011;4068;42.158;24.732;2023-03-14T12:59:38;8.88;;;5.53;;
8050;SDS011;4068;42.158;24.732;2023-03-14T13:02:37;5.97;;;4.90;;
8050;SDS011;4068;42.158;24.732;2023-03-14T13:10:19;7.47;;;5.38;;
8050;SDS011;4068;42.158;24.732;2023-03-14T13:15:40;9.88;;;5.78;;
8050;SDS011;4068;42.158;24.732;2023-03-14T13:20:38;6.68;;;4.97;;
8050;SDS011;4068;42.158;24.732;2023-03-14T13:23:23;8.55;;;5.63;;
8050;SDS011;4068;42.158;24.732;2023-03-14T13:25:51;11.75;;;6.13;;
8050;SDS011;4068;42.158;24.732;2023-03-14T13:28:17;11.43;;;5.50;;
8050;SDS011;4068;42.158;24.732;2023-03-14T13:30:44;9.60;;;5.22;;
8050;SDS011;4068;42.158;24.732;2023-03-14T13:33:12;8.90;;;5.40;;
8050;SDS011;4068;42.158;24.732;2023-03-14T13:35:42;7.35;;;5.65;;
8050;SDS011;4068;42.158;24.732;2023-03-14T13:38:16;10.43;;;6.60;;
8050;SDS011;4068;42.158;24.732;2023-03-14T13:40:45;13.57;;;5.78;;
8050;SDS011;4068;42.158;24.732;2023-03-14T13:43:20;8.57;;;5.72;;
8050;SDS011;4068;42.158;24.732;2023-03-14T13:45:51;9.18;;;5.55;;
8050;SDS011;4068;42.158;24.732;2023-03-14T13:48:20;7.03;;;5.25;;
8050;SDS011;4068;42.158;24.732;2023-03-14T13:50:51;9.15;;;5.63;;
8050;SDS011;4068;42.158;24.732;2023-03-14T13:53:18;8.88;;;6.05;;
8050;SDS011;4068;42.158;24.732;2023-03-14T13:55:44;7.75;;;4.82;;
8050;SDS011;4068;42.158;24.732;2023-03-14T13:58:28;10.80;;;5.40;;
8050;SDS011;4068;42.158;24.732;2023-03-14T14:00:57;10.02;;;5.45;;
8050;SDS011;4068;42.158;24.732;2023-03-14T14:03:25;19.45;;;6.13;;
8050;SDS011;4068;42.158;24.732;2023-03-14T14:05:52;9.65;;;6.22;;
8050;SDS011;4068;42.158;24.732;2023-03-14T14:08:20;10.38;;;5.93;;
8050;SDS011;4068;42.158;24.732;2023-03-14T14:10:46;8.52;;;5.22;;
8050;SDS011;4068;42.158;24.732;2023-03-14T14:13:14;9.07;;;5.53;;
8050;SDS011;4068;42.158;24.732;2023-03-14T14:15:44;9.30;;;6.10;;
8050;SDS011;4068;42.158;24.732;2023-03-14T14:18:14;10.23;;;5.85;;
8050;SDS011;4068;42.158;24.732;2023-03-14T14:20:44;8.20;;;5.15;;
8050;SDS011;4068;42.158;24.732;2023-03-14T14:23:15;6.05;;;5.30;;
8050;SDS011;4068;42.158;24.732;2023-03-14T14:25:45;7.28;;;5.35;;
8050;SDS011;4068;42.158;24.732;2023-03-14T14:30:45;6.43;;;4.78;;
8050;SDS011;4068;42.158;24.732;2023-03-14T14:33:18;10.60;;;4.82;;
8050;SDS011;4068;42.158;24.732;2023-03-14T14:35:55;6.85;;;5.07;;
8050;SDS011;4068;42.158;24.732;2023-03-14T14:38:23;9.88;;;5.57;;
8050;SDS011;4068;42.158;24.732;2023-03-14T14:40:50;5.57;;;4.75;;
8050;SDS011;4068;42.158;24.732;2023-03-14T14:43:20;8.38;;;4.90;;
8050;SDS011;4068;42.158;24.732;2023-03-14T14:45:51;7.55;;;5.28;;
8050;SDS011;4068;42.158;24.732;2023-03-14T14:48:19;11.40;;;5.10;;
8050;SDS011;4068;42.158;24.732;2023-03-14T14:53:59;5.93;;;4.90;;
8050;SDS011;4068;42.158;24.732;2023-03-14T14:56:13;8.50;;;4.95;;
8050;SDS011;4068;42.158;24.732;2023-03-14T14:58:43;7.90;;;5.53;;
8050;SDS011;4068;42.158;24.732;2023-03-14T15:03:45;9.43;;;5.57;;
8050;SDS011;4068;42.158;24.732;2023-03-14T15:06:13;11.57;;;6.03;;
8050;SDS011;4068;42.158;24.732;2023-03-14T15:08:40;10.95;;;6.15;;
8050;SDS011;4068;42.158;24.732;2023-03-14T15:11:09;13.40;;;6.00;;
8050;SDS011;4068;42.158;24.732;2023-03-14T15:13:41;8.48;;;5.93;;
8050;SDS011;4068;42.158;24.732;2023-03-14T15:16:13;9.27;;;6.13;;
8050;SDS011;4068;42.158;24.732;2023-03-14T15:18:41;12.65;;;6.72;;
8050;SDS011;4068;42.158;24.732;2023-03-14T15:21:09;12.27;;;6.10;;
8050;SDS011;4068;42.158;24.732;2023-03-14T15:23:35;7.97;;;5.75;;
8050;SDS011;4068;42.158;24.732;2023-03-14T15:26:01;20.20;;;5.88;;
8050;SDS011;4068;42.158;24.732;2023-03-14T15:28:27;9.00;;;5.85;;
8050;SDS011;4068;42.158;24.732;2023-03-14T15:30:54;8.63;;;5.47;;
8050;SDS011;4068;42.158;24.732;2023-03-14T15:33:22;10.63;;;5.50;;
8050;SDS011;4068;42.158;24.732;2023-03-14T15:35:49;9.50;;;6.50;;
8050;SDS011;4068;42.158;24.732;2023-03-14T15:38:16;8.52;;;6.13;;
8050;SDS011;4068;42.158;24.732;2023-03-14T15:40:46;10.77;;;5.90;;
8050;SDS011;4068;42.158;24.732;2023-03-14T15:43:11;9.57;;;5.82;;
8050;SDS011;4068;42.158;24.732;2023-03-14T15:45:36;9.45;;;5.97;;
8050;SDS011;4068;42.158;24.732;2023-03-14T15:48:02;8.85;;;6.10;;
8050;SDS011;4068;42.158;24.732;2023-03-14T15:50:28;8.35;;;5.65;;
8050;SDS011;4068;42.158;24.732;2023-03-14T15:52:54;11.55;;;5.68;;
8050;SDS011;4068;42.158;24.732;2023-03-14T15:55:20;9.35;;;6.10;;
8050;SDS011;4068;42.158;24.732;2023-03-14T15:57:46;7.20;;;5.57;;
8050;SDS011;4068;42.158;24.732;2023-03-14T16:00:13;9.48;;;5.72;;
8050;SDS011;4068;42.158;24.732;2023-03-14T16:02:41;12.10;;;5.90;;
8050;SDS011;4068;42.158;24.732;2023-03-14T16:05:08;13.13;;;5.40;;
8050;SDS011;4068;42.158;24.732;2023-03-14T16:07:34;13.18;;;6.38;;
8050;SDS011;4068;42.158;24.732;2023-03-14T16:10:00;13.50;;;5.97;;
8050;SDS011;4068;42.158;24.732;2023-03-14T16:12:25;15.15;;;7.15;;
8050;SDS011;4068;42.158;24.732;2023-03-14T16:14:50;11.32;;;6.40;;